Time;durP1;ratioP1;P1;durP2;ratioP2;P2;SDS_P1;SDS_P2;PMS_P1;PMS_P2;Temp;Humidity;BMP_temperature;BMP_pressure;BME280_temperature;BME280_humidity;BME280_pressure;Samples;Min_cycle;Max_cycle;Signal;HPM_P1;HPM_P2
2023/06/24 00:01:42;;;;;;;12.90;9.35;;;21.30;99.90;;;;;;5023389;28;20020;-89
2023/06/24 00:04:08;;;;;;;10.95;9.63;;;21.30;99.90;;;;;;5038805;28;20030;-92
2023/06/24 00:06:34;;;;;;;11.27;9.50;;;21.30;99.90;;;;;;5002368;28;20022;-93
2023/06/24 00:09:01;;;;;;;10.98;9.88;;;21.20;99.90;;;;;;5018568;28;20522;-92
2023/06/24 00:11:28;;;;;;;13.90;10.50;;;21.20;99.90;;;;;;4985949;28;20022;-93
2023/06/24 00:13:54;;;;;;;13.02;9.85;;;21.20;99.90;;;;;;5001637;28;20025;-93
2023/06/24 00:16:26;;;;;;;13.38;10.10;;;21.20;99.90;;;;;;5017912;28;20021;-92
2023/06/24 00:18:52;;;;;;;13.75;10.52;;;21.20;99.90;;;;;;5002769;28;20132;-92
2023/06/24 00:21:19;;;;;;;13.43;9.85;;;21.20;99.90;;;;;;5017154;28;20061;-92
2023/06/24 00:23:45;;;;;;;15.02;9.57;;;21.10;99.90;;;;;;5017649;28;20021;-92
2023/06/24 00:26:13;;;;;;;14.13;10.20;;;21.10;99.90;;;;;;5018327;28;20056;-96
2023/06/24 00:28:39;;;;;;;11.20;9.65;;;21.10;99.90;;;;;;5018934;28;20044;-96
2023/06/24 00:31:05;;;;;;;11.45;9.73;;;21.10;99.90;;;;;;4985618;28;20037;-96
2023/06/24 00:33:35;;;;;;;10.95;9.30;;;21.10;99.90;;;;;;5001378;28;20033;-96
2023/06/24 00:36:02;;;;;;;11.30;9.45;;;21.10;99.90;;;;;;5017876;28;20025;-93
2023/06/24 00:38:32;;;;;;;14.00;9.98;;;21.00;99.90;;;;;;5000737;28;20026;-93
2023/06/24 00:40:58;;;;;;;13.63;9.80;;;21.00;99.90;;;;;;5002503;28;20022;-92
2023/06/24 00:43:24;;;;;;;12.93;10.70;;;21.00;99.90;;;;;;5001028;28;20057;-93
2023/06/24 00:45:53;;;;;;;13.88;11.85;;;21.00;99.90;;;;;;5017741;28;20028;-93
2023/06/24 00:48:20;;;;;;;12.10;10.65;;;21.00;99.90;;;;;;5017661;28;20464;-94
2023/06/24 00:50:45;;;;;;;13.07;11.63;;;21.00;99.90;;;;;;5000949;28;20025;-93
2023/06/24 00:53:11;;;;;;;13.38;11.18;;;21.00;99.90;;;;;;5038806;28;20028;-94
2023/06/24 00:55:45;;;;;;;12.60;10.52;;;21.00;99.90;;;;;;5024686;28;20013;-93
2023/06/24 00:58:15;;;;;;;12.02;10.38;;;21.00;99.90;;;;;;5006445;28;20013;-91
2023/06/24 01:00:42;;;;;;;12.27;10.65;;;21.00;99.90;;;;;;5021865;28;20388;-94
2023/06/24 01:03:14;;;;;;;12.38;10.30;;;21.00;99.90;;;;;;5001451;28;20128;-94
2023/06/24 01:05:41;;;;;;;12.30;10.55;;;21.00;99.90;;;;;;5018243;28;20075;-93
2023/06/24 01:08:07;;;;;;;12.10;10.80;;;21.00;99.90;;;;;;5000631;28;20030;-91
2023/06/24 01:10:33;;;;;;;13.02;11.15;;;21.10;99.90;;;;;;5000658;28;20030;-92
2023/06/24 01:12:59;;;;;;;12.50;10.60;;;21.10;99.90;;;;;;5003998;28;20040;-93
2023/06/24 01:15:28;;;;;;;14.55;11.13;;;21.00;99.90;;;;;;5004508;28;20031;-92
2023/06/24 01:18:23;;;;;;;13.73;10.82;;;21.00;99.90;;;;;;5020973;28;20108;-93
2023/06/24 01:20:58;;;;;;;12.35;11.05;;;21.00;99.90;;;;;;5016906;28;20033;-93
2023/06/24 01:23:30;;;;;;;12.85;11.02;;;21.00;99.90;;;;;;5020877;28;20485;-93
2023/06/24 01:26:31;;;;;;;13.93;11.00;;;20.90;99.90;;;;;;5021016;28;20071;-95
2023/06/24 01:29:34;;;;;;;12.40;10.63;;;20.90;99.90;;;;;;5018472;28;20040;-95
2023/06/24 01:32:07;;;;;;;14.63;11.80;;;20.90;99.90;;;;;;5021574;28;20037;-95
2023/06/24 01:34:48;;;;;;;13.50;10.75;;;20.80;99.90;;;;;;5021166;28;20075;-95
2023/06/24 01:37:29;;;;;;;12.98;10.77;;;20.80;99.90;;;;;;5021043;28;20496;-95
2023/06/24 01:40:27;;;;;;;13.32;11.27;;;20.70;99.90;;;;;;5020480;28;20026;-96
2023/06/24 01:42:56;;;;;;;16.10;12.45;;;20.70;99.90;;;;;;5025708;28;20053;-94
2023/06/24 01:45:28;;;;;;;14.10;12.60;;;20.60;99.90;;;;;;5021423;28;20030;-94
2023/06/24 01:48:07;;;;;;;14.18;12.43;;;20.60;99.90;;;;;;5021431;28;20064;-95
2023/06/24 01:50:34;;;;;;;15.63;12.90;;;20.60;99.90;;;;;;5022167;28;20118;-94
2023/06/24 01:53:05;;;;;;;14.95;12.95;;;20.50;99.90;;;;;;5020920;28;20025;-94
2023/06/24 01:55:33;;;;;;;19.67;13.80;;;20.50;99.90;;;;;;5020686;28;20020;-94
2023/06/24 01:58:01;;;;;;;17.33;13.70;;;20.50;99.90;;;;;;5021674;28;20030;-94
2023/06/24 02:00:28;;;;;;;15.90;13.30;;;20.50;99.90;;;;;;5008950;28;20029;-94
2023/06/24 02:02:55;;;;;;;17.10;13.48;;;20.50;99.90;;;;;;5012686;28;20036;-94
2023/06/24 02:05:22;;;;;;;16.10;13.48;;;20.50;99.90;;;;;;5028622;28;20022;-95
2023/06/24 02:07:49;;;;;;;16.58;13.98;;;20.50;99.90;;;;;;5028955;28;20026;-94
2023/06/24 02:10:16;;;;;;;16.80;13.75;;;20.50;99.90;;;;;;5026877;28;20032;-94
2023/06/24 02:12:45;;;;;;;17.48;13.40;;;20.50;99.90;;;;;;5010535;28;20116;-94
2023/06/24 02:15:11;;;;;;;16.13;13.15;;;20.50;99.90;;;;;;5025583;28;20104;-93
2023/06/24 02:17:39;;;;;;;17.58;13.13;;;20.50;99.90;;;;;;5019680;28;20032;-93
2023/06/24 02:20:10;;;;;;;15.75;13.55;;;20.40;99.90;;;;;;5019690;28;20461;-93
2023/06/24 02:22:41;;;;;;;15.70;14.00;;;20.40;99.90;;;;;;5019425;28;20022;-93
2023/06/24 02:25:08;;;;;;;17.98;14.48;;;20.40;99.90;;;;;;5019695;28;20014;-93
2023/06/24 02:27:37;;;;;;;16.17;12.82;;;20.40;99.90;;;;;;5003481;28;20058;-94
2023/06/24 02:30:08;;;;;;;16.33;13.85;;;20.40;99.90;;;;;;5019742;28;20026;-93
2023/06/24 02:32:35;;;;;;;15.70;13.23;;;20.40;99.90;;;;;;5003573;28;20484;-91
2023/06/24 02:35:02;;;;;;;19.73;14.52;;;20.30;99.90;;;;;;5021191;28;20075;-91
2023/06/24 02:37:28;;;;;;;15.50;13.65;;;20.30;99.90;;;;;;5019852;28;20018;-91
2023/06/24 02:39:54;;;;;;;17.60;14.80;;;20.30;99.90;;;;;;5019453;28;20020;-92
2023/06/24 02:42:19;;;;;;;15.82;13.93;;;20.30;99.90;;;;;;5003638;28;20026;-92
2023/06/24 02:44:48;;;;;;;16.67;14.80;;;20.20;99.90;;;;;;5019948;28;20414;-94
2023/06/24 02:47:16;;;;;;;18.60;14.45;;;20.20;99.90;;;;;;5003417;28;20135;-94
2023/06/24 02:49:46;;;;;;;17.38;14.65;;;20.20;99.90;;;;;;5019970;28;20048;-94
2023/06/24 02:52:12;;;;;;;18.65;14.00;;;20.20;99.90;;;;;;5019281;28;20029;-93
2023/06/24 02:54:39;;;;;;;16.13;14.43;;;20.20;99.90;;;;;;5018887;28;20057;-91
2023/06/24 02:57:06;;;;;;;17.23;14.35;;;20.20;99.90;;;;;;5019126;28;20032;-91
2023/06/24 02:59:35;;;;;;;18.15;15.30;;;20.10;99.90;;;;;;5002946;28;20030;-91
2023/06/24 03:02:03;;;;;;;18.77;14.25;;;20.10;99.90;;;;;;5003631;28;20083;-91
2023/06/24 03:04:30;;;;;;;19.17;14.00;;;20.10;99.90;;;;;;5019099;28;20361;-94
2023/06/24 03:06:59;;;;;;;16.15;14.05;;;20.10;99.90;;;;;;5019757;28;20036;-94
2023/06/24 03:09:26;;;;;;;16.38;14.15;;;20.00;99.90;;;;;;5019791;28;20452;-94
2023/06/24 03:11:55;;;;;;;15.93;13.65;;;20.00;99.90;;;;;;5019611;28;20025;-94
2023/06/24 03:14:21;;;;;;;18.58;14.88;;;20.00;99.90;;;;;;5003079;28;20033;-94
2023/06/24 03:16:47;;;;;;;20.02;16.48;;;20.00;99.90;;;;;;5019421;28;20026;-94
2023/06/24 03:19:12;;;;;;;17.65;14.57;;;20.00;99.90;;;;;;5003704;28;20051;-91
2023/06/24 03:21:38;;;;;;;17.48;14.68;;;19.90;99.90;;;;;;5002280;28;20070;-93
2023/06/24 03:24:04;;;;;;;18.90;15.60;;;19.90;99.90;;;;;;4986356;28;20026;-93
2023/06/24 03:26:38;;;;;;;17.48;15.07;;;19.80;99.90;;;;;;5018593;28;20049;-92
2023/06/24 03:29:04;;;;;;;19.13;15.00;;;19.80;99.90;;;;;;5018987;28;20090;-93
2023/06/24 03:31:33;;;;;;;19.60;14.98;;;19.80;99.90;;;;;;5003205;28;20120;-92
2023/06/24 03:33:58;;;;;;;15.68;13.80;;;19.80;99.90;;;;;;5018888;28;20053;-93
2023/06/24 03:36:24;;;;;;;20.58;14.98;;;19.80;99.90;;;;;;5002558;28;20033;-93
2023/06/24 03:38:50;;;;;;;20.95;15.40;;;19.70;99.90;;;;;;5018886;28;20021;-96
2023/06/24 03:41:16;;;;;;;18.92;15.40;;;19.70;99.90;;;;;;5019972;28;20020;-95
2023/06/24 03:43:43;;;;;;;19.08;15.88;;;19.70;99.90;;;;;;5019165;28;20120;-93
2023/06/24 03:46:11;;;;;;;19.35;14.93;;;19.70;99.90;;;;;;5019252;28;20039;-96
2023/06/24 03:48:38;;;;;;;19.52;15.50;;;19.70;99.90;;;;;;5004091;28;20025;-95
2023/06/24 03:51:04;;;;;;;19.42;15.27;;;19.70;99.90;;;;;;5019770;28;20026;-96
2023/06/24 03:53:29;;;;;;;23.25;15.45;;;19.70;99.90;;;;;;5002891;28;20506;-95
2023/06/24 03:55:55;;;;;;;16.70;14.27;;;19.60;99.90;;;;;;5001795;28;20044;-92
2023/06/24 03:58:21;;;;;;;19.27;14.27;;;19.60;99.90;;;;;;5001349;28;20025;-93
2023/06/24 04:00:49;;;;;;;16.58;13.48;;;19.60;99.90;;;;;;5017683;28;20021;-93
2023/06/24 04:03:18;;;;;;;18.38;13.35;;;19.60;99.90;;;;;;5002504;28;20037;-92
2023/06/24 04:05:44;;;;;;;16.80;13.48;;;19.60;99.90;;;;;;5018536;28;20461;-92
2023/06/24 04:08:10;;;;;;;18.38;14.15;;;19.60;99.90;;;;;;5017703;28;20056;-93
2023/06/24 04:10:36;;;;;;;17.13;13.60;;;19.50;99.90;;;;;;5001405;28;20033;-93
2023/06/24 04:13:02;;;;;;;16.63;13.73;;;19.50;99.90;;;;;;5032362;28;20044;-94
2023/06/24 04:15:28;;;;;;;15.93;13.82;;;19.50;99.90;;;;;;5017900;28;20029;-94
2023/06/24 04:17:54;;;;;;;18.02;14.40;;;19.50;99.90;;;;;;5020762;28;20026;-94
2023/06/24 04:20:20;;;;;;;17.60;14.88;;;19.50;99.90;;;;;;4985986;28;20029;-94
2023/06/24 04:22:46;;;;;;;17.25;13.82;;;19.50;99.90;;;;;;5018443;28;20025;-94
2023/06/24 04:25:11;;;;;;;19.88;16.20;;;19.50;99.90;;;;;;4985931;28;20025;-94
2023/06/24 04:27:37;;;;;;;18.70;15.30;;;19.50;99.90;;;;;;5017742;28;20049;-94
2023/06/24 04:30:06;;;;;;;20.20;14.48;;;19.50;99.90;;;;;;5001502;28;20039;-94
2023/06/24 04:32:32;;;;;;;19.52;16.27;;;19.50;99.90;;;;;;5019093;28;20468;-96
2023/06/24 04:35:00;;;;;;;19.02;15.48;;;19.50;99.90;;;;;;5018262;28;20025;-94
2023/06/24 04:37:26;;;;;;;21.90;16.42;;;19.50;99.90;;;;;;5002619;28;20014;-94
2023/06/24 04:39:52;;;;;;;19.27;16.17;;;19.50;99.90;;;;;;5019442;28;20358;-94
2023/06/24 04:42:18;;;;;;;23.92;18.58;;;19.50;99.90;;;;;;5002305;28;20120;-94
2023/06/24 04:44:44;;;;;;;24.02;18.00;;;19.50;99.90;;;;;;5017769;28;20061;-93
2023/06/24 04:47:09;;;;;;;22.48;17.60;;;19.50;99.90;;;;;;5000835;28;20076;-93
2023/06/24 04:49:35;;;;;;;19.80;17.20;;;19.50;99.90;;;;;;5001197;28;20025;-92
2023/06/24 04:52:01;;;;;;;19.65;17.27;;;19.50;99.90;;;;;;5018148;28;20021;-92
2023/06/24 04:54:30;;;;;;;19.77;16.85;;;19.50;99.90;;;;;;5000859;28;20034;-94
2023/06/24 04:56:57;;;;;;;20.92;16.90;;;19.50;99.90;;;;;;4985243;28;20057;-93
2023/06/24 04:59:23;;;;;;;23.52;17.77;;;19.50;99.90;;;;;;5017272;28;20025;-93
2023/06/24 05:01:51;;;;;;;21.27;17.52;;;19.50;99.90;;;;;;5001634;28;20021;-96
2023/06/24 05:04:16;;;;;;;21.10;16.48;;;19.60;99.90;;;;;;5018900;28;20487;-94
2023/06/24 05:06:42;;;;;;;19.83;16.30;;;19.60;99.90;;;;;;5017600;28;20091;-95
2023/06/24 05:09:08;;;;;;;24.08;17.48;;;19.60;99.90;;;;;;5000961;28;20039;-94
2023/06/24 05:11:34;;;;;;;20.83;16.65;;;19.60;99.90;;;;;;5001077;28;20451;-95
2023/06/24 05:14:01;;;;;;;21.25;17.25;;;19.60;99.90;;;;;;5017911;28;20026;-93
2023/06/24 05:16:29;;;;;;;19.67;16.33;;;19.60;99.90;;;;;;5002189;28;20487;-95
2023/06/24 05:18:55;;;;;;;19.33;15.27;;;19.70;99.90;;;;;;5017145;28;20025;-92
2023/06/24 05:21:21;;;;;;;17.52;14.80;;;19.70;99.90;;;;;;5016854;28;20116;-92
2023/06/24 05:23:47;;;;;;;18.45;14.27;;;19.70;99.90;;;;;;5000772;28;20091;-92
2023/06/24 05:26:12;;;;;;;14.30;11.55;;;19.80;99.90;;;;;;5017820;28;20056;-92
2023/06/24 05:28:38;;;;;;;21.60;12.10;;;19.70;99.90;;;;;;5017357;28;20459;-92
2023/06/24 05:31:05;;;;;;;17.08;13.13;;;19.70;99.90;;;;;;5000908;28;20389;-92
2023/06/24 05:33:30;;;;;;;15.45;12.90;;;19.80;99.90;;;;;;5022411;28;20025;-94
2023/06/24 05:35:56;;;;;;;15.30;12.27;;;19.80;99.90;;;;;;4990765;28;20026;-93
2023/06/24 05:38:22;;;;;;;15.00;12.73;;;19.70;99.90;;;;;;5026584;28;20083;-92
2023/06/24 05:40:48;;;;;;;15.68;12.70;;;19.70;99.90;;;;;;5011362;28;20032;-93
2023/06/24 05:43:13;;;;;;;15.75;11.20;;;19.70;99.90;;;;;;5030012;28;20056;-92
2023/06/24 05:45:39;;;;;;;13.02;10.75;;;19.70;99.90;;;;;;5014929;28;20042;-93
2023/06/24 05:48:05;;;;;;;13.55;11.07;;;19.70;99.90;;;;;;5031327;28;20032;-93
2023/06/24 05:50:31;;;;;;;15.00;11.55;;;19.70;99.90;;;;;;5030621;28;20021;-93
2023/06/24 05:52:58;;;;;;;12.80;10.13;;;19.70;99.90;;;;;;5019862;28;20121;-93
2023/06/24 05:55:23;;;;;;;14.10;10.80;;;19.70;99.90;;;;;;5016726;28;20029;-93
2023/06/24 05:57:49;;;;;;;14.02;10.77;;;19.80;99.90;;;;;;5000341;28;20030;-93
2023/06/24 06:00:18;;;;;;;13.55;10.60;;;19.80;99.90;;;;;;5020141;28;20021;-92
2023/06/24 06:02:44;;;;;;;14.00;10.55;;;19.80;99.90;;;;;;5019813;28;20049;-93
2023/06/24 06:05:10;;;;;;;13.75;10.68;;;19.90;99.90;;;;;;5020501;28;20586;-93
2023/06/24 06:07:39;;;;;;;14.35;10.15;;;19.90;99.90;;;;;;5021327;28;20021;-93
2023/06/24 06:10:06;;;;;;;14.75;10.25;;;19.90;99.90;;;;;;5020839;28;20013;-93
2023/06/24 06:12:32;;;;;;;13.02;10.43;;;19.90;99.90;;;;;;4988821;28;20100;-93
2023/06/24 06:14:58;;;;;;;13.32;10.75;;;20.00;99.90;;;;;;5020120;28;20551;-93
2023/06/24 06:17:24;;;;;;;14.77;11.32;;;20.00;99.90;;;;;;5020141;28;20084;-93
2023/06/24 06:19:50;;;;;;;14.30;10.43;;;20.00;99.90;;;;;;5004255;28;20048;-93
2023/06/24 06:22:15;;;;;;;12.15;9.40;;;20.00;99.90;;;;;;5021226;28;20037;-95
2023/06/24 06:24:41;;;;;;;15.25;9.35;;;20.10;99.90;;;;;;5021844;28;20023;-91
2023/06/24 06:27:19;;;;;;;11.75;9.40;;;20.10;99.90;;;;;;5024386;28;20045;-91
2023/06/24 06:29:50;;;;;;;13.40;9.43;;;20.20;99.90;;;;;;5010524;28;20480;-93
2023/06/24 06:32:16;;;;;;;12.77;9.60;;;20.20;99.90;;;;;;5008478;28;20029;-91
2023/06/24 06:34:42;;;;;;;10.38;8.57;;;20.20;99.90;;;;;;5024923;28;20065;-91
2023/06/24 06:37:11;;;;;;;10.73;8.60;;;20.20;99.90;;;;;;5022542;28;20018;-91
2023/06/24 06:39:36;;;;;;;13.00;9.38;;;20.30;99.90;;;;;;5022611;28;20017;-91
2023/06/24 06:42:02;;;;;;;12.38;8.80;;;20.30;99.90;;;;;;5004628;28;20033;-91
2023/06/24 06:44:28;;;;;;;13.32;9.93;;;20.40;99.90;;;;;;5003337;28;20120;-91
2023/06/24 06:46:54;;;;;;;15.80;10.13;;;20.40;99.90;;;;;;5003201;28;20117;-92
2023/06/24 06:49:19;;;;;;;13.68;10.07;;;20.50;99.90;;;;;;4986360;28;20123;-91
2023/06/24 06:51:48;;;;;;;12.80;10.15;;;20.50;99.90;;;;;;5002925;28;20036;-93
2023/06/24 06:54:14;;;;;;;12.60;9.13;;;20.60;99.90;;;;;;5019497;28;20478;-92
2023/06/24 06:56:47;;;;;;;14.25;10.13;;;20.60;99.90;;;;;;5019348;28;20026;-92
2023/06/24 06:59:12;;;;;;;13.90;9.30;;;20.60;99.90;;;;;;5022613;28;20033;-92
2023/06/24 07:01:38;;;;;;;12.80;8.98;;;20.60;99.90;;;;;;4989745;28;20029;-92
2023/06/24 07:04:09;;;;;;;11.25;8.70;;;20.70;99.90;;;;;;5008012;28;20088;-94
2023/06/24 07:06:34;;;;;;;13.50;9.77;;;20.80;99.90;;;;;;5005211;28;20120;-93
2023/06/24 07:09:00;;;;;;;15.50;10.82;;;20.80;99.90;;;;;;5019246;28;20448;-93
2023/06/24 07:11:26;;;;;;;14.32;10.40;;;20.80;99.90;;;;;;5005450;28;20377;-92
2023/06/24 07:13:52;;;;;;;13.63;9.70;;;20.80;99.90;;;;;;5003510;28;20086;-92
2023/06/24 07:16:18;;;;;;;13.43;11.05;;;20.90;99.90;;;;;;5019194;28;20112;-94
2023/06/24 07:18:46;;;;;;;12.27;8.82;;;20.90;99.90;;;;;;5028171;28;20021;-96
2023/06/24 07:21:12;;;;;;;12.85;8.45;;;20.90;99.90;;;;;;5012088;28;20112;-95
2023/06/24 07:23:38;;;;;;;10.43;8.50;;;21.00;99.90;;;;;;5025444;28;20441;-96
2023/06/24 07:26:07;;;;;;;11.02;8.68;;;21.10;99.90;;;;;;5010366;28;20064;-95
2023/06/24 07:28:33;;;;;;;11.48;9.45;;;21.10;99.90;;;;;;5006849;28;20033;-95
2023/06/24 07:30:58;;;;;;;11.48;9.32;;;21.20;99.90;;;;;;5022569;28;20112;-94
2023/06/24 07:33:25;;;;;;;10.80;8.52;;;21.20;99.90;;;;;;5024118;28;20053;-95
2023/06/24 07:35:51;;;;;;;11.63;8.45;;;21.20;99.90;;;;;;5006534;28;20022;-95
2023/06/24 07:38:17;;;;;;;10.23;7.80;;;21.30;99.90;;;;;;5022517;28;20020;-95
2023/06/24 07:40:42;;;;;;;9.05;7.43;;;21.30;99.90;;;;;;5022180;28;20075;-95
2023/06/24 07:43:10;;;;;;;11.48;7.18;;;21.40;99.90;;;;;;5007957;28;20472;-96
2023/06/24 07:45:42;;;;;;;9.27;6.65;;;21.40;99.90;;;;;;5009641;28;20093;-96
2023/06/24 07:48:08;;;;;;;9.98;7.60;;;21.50;99.90;;;;;;5023907;28;20022;-91
2023/06/24 07:50:35;;;;;;;10.80;7.13;;;21.50;99.90;;;;;;5002627;28;20025;-92
2023/06/24 07:53:02;;;;;;;10.70;6.97;;;21.60;99.90;;;;;;5002176;28;20030;-92
2023/06/24 07:55:28;;;;;;;9.90;6.75;;;21.60;99.90;;;;;;5002337;28;20028;-92
2023/06/24 07:57:53;;;;;;;7.38;5.38;;;21.70;99.90;;;;;;5013495;28;20380;-91
2023/06/24 08:00:19;;;;;;;10.45;6.40;;;21.70;99.90;;;;;;5037497;28;20025;-92
2023/06/24 08:02:45;;;;;;;8.27;6.05;;;21.70;99.90;;;;;;5022063;28;20546;-94
2023/06/24 08:05:14;;;;;;;8.00;5.93;;;21.70;99.90;;;;;;5022483;28;20028;-94
2023/06/24 08:07:40;;;;;;;11.57;6.13;;;21.80;99.90;;;;;;5021689;28;20086;-93
2023/06/24 08:10:11;;;;;;;10.15;6.78;;;21.80;99.90;;;;;;5038754;28;20535;-94
2023/06/24 08:12:37;;;;;;;9.48;5.93;;;21.80;99.90;;;;;;5021992;28;20021;-94
2023/06/24 08:15:04;;;;;;;8.90;6.45;;;21.90;99.90;;;;;;5021294;28;20145;-92
2023/06/24 08:17:30;;;;;;;9.75;5.75;;;21.90;99.90;;;;;;5038452;28;20468;-93
2023/06/24 08:19:56;;;;;;;9.20;5.85;;;22.00;99.90;;;;;;5021452;28;20036;-93
2023/06/24 08:22:24;;;;;;;7.70;5.45;;;22.00;99.90;;;;;;5022058;28;20039;-94
2023/06/24 08:24:50;;;;;;;7.95;5.22;;;22.10;99.90;;;;;;5023970;28;20537;-94
2023/06/24 08:27:16;;;;;;;11.70;4.60;;;22.20;99.90;;;;;;5039831;28;20053;-94
2023/06/24 08:29:45;;;;;;;7.63;5.55;;;22.30;99.90;;;;;;5031355;28;20037;-93
2023/06/24 08:32:11;;;;;;;7.75;5.18;;;22.30;99.90;;;;;;5047090;28;20025;-92
2023/06/24 08:34:37;;;;;;;10.52;5.43;;;22.40;99.90;;;;;;5045380;28;20151;-95
2023/06/24 08:37:17;;;;;;;6.93;5.30;;;22.40;99.90;;;;;;5005704;28;20383;-94
2023/06/24 08:39:54;;;;;;;14.75;5.78;;;22.50;99.90;;;;;;5025799;28;20052;-93
2023/06/24 08:42:20;;;;;;;9.32;6.18;;;22.50;99.90;;;;;;5040756;28;20021;-93
2023/06/24 08:44:48;;;;;;;9.02;6.15;;;22.60;99.90;;;;;;5042664;28;20102;-94
2023/06/24 08:47:16;;;;;;;9.35;6.25;;;22.60;99.90;;;;;;5005366;28;20039;-93
2023/06/24 08:49:49;;;;;;;10.48;6.18;;;22.70;99.90;;;;;;5021802;28;20021;-93
2023/06/24 08:52:16;;;;;;;8.70;5.93;;;22.80;99.90;;;;;;5037233;28;20526;-93
2023/06/24 08:54:47;;;;;;;8.70;6.00;;;22.80;99.90;;;;;;5037623;28;20021;-93
2023/06/24 08:57:15;;;;;;;8.80;5.72;;;22.80;99.90;;;;;;5038293;28;20028;-93
2023/06/24 08:59:41;;;;;;;11.27;5.80;;;22.90;99.90;;;;;;5038280;28;20070;-95
2023/06/24 09:02:11;;;;;;;9.30;6.82;;;22.90;99.90;;;;;;5023270;28;20154;-94
2023/06/24 09:04:37;;;;;;;10.10;6.15;;;22.90;99.90;;;;;;5022737;28;20438;-96
2023/06/24 09:07:03;;;;;;;8.73;6.18;;;23.00;99.90;;;;;;5021547;28;20028;-94
2023/06/24 09:09:29;;;;;;;8.73;6.38;;;23.00;99.90;;;;;;5004704;28;20057;-95
2023/06/24 09:11:57;;;;;;;9.25;5.80;;;23.10;99.90;;;;;;5038404;28;20025;-93
2023/06/24 09:14:24;;;;;;;7.55;5.38;;;22.80;99.90;;;;;;5038717;28;20107;-92
2023/06/24 09:16:55;;;;;;;7.13;5.38;;;22.60;99.90;;;;;;5037231;28;20111;-91
2023/06/24 09:19:25;;;;;;;7.88;5.30;;;22.80;99.90;;;;;;5020965;28;20025;-89
2023/06/24 09:21:52;;;;;;;6.85;4.90;;;23.00;99.90;;;;;;5037668;28;20017;-91
2023/06/24 09:24:18;;;;;;;7.35;5.32;;;23.20;99.90;;;;;;5038199;28;20037;-92
2023/06/24 09:26:47;;;;;;;8.35;5.85;;;23.30;99.90;;;;;;5036725;28;20063;-91
2023/06/24 09:29:14;;;;;;;7.28;5.78;;;23.40;99.90;;;;;;5022242;28;20099;-94
2023/06/24 09:31:52;;;;;;;7.07;5.15;;;23.50;99.90;;;;;;5040260;28;20029;-94
2023/06/24 09:34:19;;;;;;;9.35;5.82;;;23.50;99.90;;;;;;5046372;28;20025;-95
2023/06/24 09:36:50;;;;;;;9.20;5.22;;;23.50;99.90;;;;;;5043365;28;20482;-93
2023/06/24 09:39:16;;;;;;;7.05;5.15;;;23.60;99.90;;;;;;5026269;28;20037;-93
2023/06/24 09:41:42;;;;;;;6.50;4.10;;;23.60;99.90;;;;;;5025139;28;20383;-96
2023/06/24 09:44:11;;;;;;;7.40;4.20;;;23.70;99.90;;;;;;5042208;28;20494;-93
2023/06/24 09:46:37;;;;;;;8.13;4.50;;;23.80;99.90;;;;;;5025068;28;20052;-95
2023/06/24 09:49:09;;;;;;;8.18;5.70;;;23.80;99.90;;;;;;5041274;28;20475;-96
2023/06/24 09:51:39;;;;;;;7.45;5.28;;;23.80;99.90;;;;;;5041182;28;20029;-95
2023/06/24 09:54:09;;;;;;;6.57;5.30;;;23.80;99.90;;;;;;5043110;28;20025;-95
2023/06/24 09:56:43;;;;;;;7.82;5.43;;;23.90;99.90;;;;;;5041402;28;20463;-96
2023/06/24 09:59:10;;;;;;;9.07;5.78;;;23.90;99.90;;;;;;5048200;28;20017;-95
2023/06/24 10:01:39;;;;;;;8.57;5.40;;;23.90;99.90;;;;;;5046441;28;20060;-95
2023/06/24 10:04:09;;;;;;;7.53;5.25;;;24.00;99.90;;;;;;5042151;28;20036;-96
2023/06/24 10:06:35;;;;;;;7.53;4.90;;;24.10;99.90;;;;;;5040950;28;20017;-95
2023/06/24 10:09:02;;;;;;;7.10;5.15;;;24.10;99.90;;;;;;5041343;28;20106;-94
2023/06/24 10:11:28;;;;;;;7.80;4.90;;;24.20;99.90;;;;;;5044610;28;20033;-96
2023/06/24 10:13:54;;;;;;;8.35;4.93;;;24.20;99.90;;;;;;5041669;28;20495;-94
2023/06/24 10:16:20;;;;;;;8.82;5.20;;;24.30;99.90;;;;;;5008508;28;20033;-93
2023/06/24 10:18:47;;;;;;;6.95;4.68;;;24.30;99.90;;;;;;5025680;28;20021;-96
2023/06/24 10:21:14;;;;;;;6.10;4.60;;;24.40;99.90;;;;;;5042054;28;20430;-96
2023/06/24 10:24:03;;;;;;;12.95;5.75;;;24.50;99.90;;;;;;5042300;28;20110;-95
2023/06/24 10:26:35;;;;;;;7.53;4.75;;;24.50;99.90;;;;;;5042167;28;20049;-96
2023/06/24 10:29:06;;;;;;;6.22;4.70;;;24.60;99.90;;;;;;5042019;28;20027;-95
2023/06/24 10:31:44;;;;;;;8.02;5.40;;;24.60;99.90;;;;;;5042059;28;20029;-94
2023/06/24 10:34:29;;;;;;;6.43;3.65;;;24.70;99.90;;;;;;5041197;28;20076;-94
2023/06/24 10:37:00;;;;;;;5.65;3.92;;;24.70;99.90;;;;;;5040886;28;20021;-92
2023/06/24 10:39:37;;;;;;;6.40;4.00;;;24.80;99.90;;;;;;5024925;28;20021;-92
2023/06/24 10:42:28;;;;;;;5.85;4.00;;;24.90;99.90;;;;;;5040775;28;20024;-91
2023/06/24 10:45:02;;;;;;;5.70;4.28;;;24.90;99.90;;;;;;5040119;28;20031;-91
2023/06/24 10:47:29;;;;;;;6.68;4.40;;;24.90;99.90;;;;;;5041033;28;20025;-91
2023/06/24 10:49:55;;;;;;;6.15;4.18;;;25.00;99.90;;;;;;5041467;28;20467;-91
2023/06/24 10:52:22;;;;;;;6.65;4.50;;;25.10;99.90;;;;;;5040019;28;20116;-90
2023/06/24 10:54:49;;;;;;;7.35;4.05;;;25.10;99.90;;;;;;5039443;28;20029;-90
2023/06/24 11:03:26;;;;;;;8.15;5.45;;;25.30;99.90;;;;;;5058509;28;20035;-96
2023/06/24 11:05:52;;;;;;;9.32;5.43;;;25.30;99.90;;;;;;5023780;28;20021;-94
2023/06/24 11:08:17;;;;;;;7.28;5.13;;;25.40;99.90;;;;;;5007087;28;20126;-94
2023/06/24 11:10:46;;;;;;;7.35;5.28;;;25.40;99.90;;;;;;5022029;28;20020;-93
2023/06/24 11:13:13;;;;;;;9.05;5.22;;;25.50;99.90;;;;;;5038805;28;20029;-92
2023/06/24 11:15:42;;;;;;;8.65;5.93;;;25.50;99.90;;;;;;5038981;28;20017;-92
2023/06/24 11:18:14;;;;;;;7.18;4.97;;;25.60;99.90;;;;;;5038642;28;20092;-92
2023/06/24 11:20:55;;;;;;;9.82;5.90;;;25.60;99.90;;;;;;5029143;28;20032;-92
2023/06/24 11:23:21;;;;;;;7.22;5.25;;;25.70;99.90;;;;;;5017757;28;20037;-92
2023/06/24 11:25:50;;;;;;;7.53;5.53;;;25.70;99.90;;;;;;5020507;28;20112;-94
2023/06/24 11:28:18;;;;;;;8.80;6.53;;;25.80;99.90;;;;;;5007874;28;20124;-95
2023/06/24 11:30:43;;;;;;;6.30;4.80;;;25.80;99.90;;;;;;5022326;28;20022;-95
2023/06/24 11:33:10;;;;;;;7.18;5.32;;;25.90;99.90;;;;;;5021268;28;20033;-95
2023/06/24 11:38:52;;;;;;;11.45;7.55;;;26.00;99.90;;;;;;5011443;28;20139;-95
2023/06/24 11:41:23;;;;;;;8.88;6.47;;;26.00;99.90;;;;;;5026418;28;20049;-94
2023/06/24 11:43:51;;;;;;;7.57;5.32;;;26.00;99.90;;;;;;5004740;28;20124;-93
2023/06/24 11:46:36;;;;;;;10.93;6.40;;;26.00;99.90;;;;;;5023391;28;20038;-94
2023/06/24 11:49:06;;;;;;;7.95;6.15;;;26.10;99.00;;;;;;5026092;28;20025;-92
2023/06/24 11:51:33;;;;;;;8.80;6.07;;;26.10;99.40;;;;;;5031975;28;20094;-93
2023/06/24 11:54:06;;;;;;;6.93;4.88;;;26.20;99.90;;;;;;5014260;28;20044;-93
2023/06/24 11:57:16;;;;;;;9.32;5.90;;;26.20;99.90;;;;;;5024530;28;20040;-93
2023/06/24 12:00:24;;;;;;;7.60;5.80;;;26.30;99.90;;;;;;4990176;28;20138;-91
2023/06/24 12:03:05;;;;;;;8.68;5.60;;;26.40;99.90;;;;;;5018164;28;20486;-91
2023/06/24 12:05:32;;;;;;;8.35;6.25;;;26.40;99.90;;;;;;5019176;28;20056;-90
2023/06/24 12:08:12;;;;;;;7.65;5.20;;;26.40;99.40;;;;;;5018717;28;20415;-95
2023/06/24 12:10:39;;;;;;;9.63;5.75;;;26.50;99.90;;;;;;5002990;28;20022;-95
2023/06/24 12:13:35;;;;;;;7.63;5.22;;;26.60;99.90;;;;;;5024690;28;20018;-91
2023/06/24 12:16:01;;;;;;;7.32;5.13;;;26.60;99.20;;;;;;5013733;28;20091;-92
2023/06/24 12:22:20;;;;;;;7.95;5.00;;;26.70;98.40;;;;;;5044721;28;20048;-92
2023/06/24 12:28:52;;;;;;;9.93;3.93;;;26.80;99.10;;;;;;4924446;29;20188;-93
2023/06/24 12:31:19;;;;;;;7.93;4.63;;;26.90;99.50;;;;;;4891195;29;20381;-94
2023/06/24 12:33:44;;;;;;;5.60;4.20;;;26.90;99.20;;;;;;4955360;28;20505;-94
2023/06/24 12:36:13;;;;;;;9.15;4.40;;;27.00;98.10;;;;;;4958882;28;20030;-95
2023/06/24 12:38:38;;;;;;;7.03;4.47;;;27.00;97.00;;;;;;4959993;28;20120;-96
2023/06/24 12:41:04;;;;;;;8.82;4.05;;;27.00;96.40;;;;;;4946412;28;20426;-96
2023/06/24 12:43:30;;;;;;;8.65;5.05;;;27.10;96.90;;;;;;4962450;28;20027;-89
2023/06/24 12:45:55;;;;;;;9.50;5.78;;;27.10;97.40;;;;;;4945473;28;20090;-95
2023/06/24 12:48:24;;;;;;;52.60;9.98;;;27.20;97.50;;;;;;4962378;28;20117;-92
2023/06/24 12:50:53;;;;;;;12.52;5.38;;;27.20;96.10;;;;;;4959186;28;20584;-95
2023/06/24 12:53:19;;;;;;;7.53;4.70;;;27.20;96.60;;;;;;4958790;28;20026;-94
2023/06/24 12:55:45;;;;;;;5.95;4.38;;;27.30;97.20;;;;;;4978282;28;20046;-95
2023/06/24 12:58:10;;;;;;;7.57;5.35;;;27.30;97.50;;;;;;4965802;28;20521;-94
2023/06/24 13:00:36;;;;;;;7.20;4.40;;;27.40;97.00;;;;;;4966684;28;20033;-95